Time;durP1;ratioP1;P1;durP2;ratioP2;P2;SDS_P1;SDS_P2;PMS_P1;PMS_P2;Temp;Humidity;BMP_temperature;BMP_pressure;BME280_temperature;BME280_humidity;BME280_pressure;Samples;Min_cycle;Max_cycle;Signal;HPM_P1;HPM_P2
2021/12/02 00:01:06;;;;;;;5.35;1.17;;;;;;;2.47;100.00;98019.22;5047774;28;20028;-86
2021/12/02 00:03:31;;;;;;;10.10;1.52;;;;;;;2.45;100.00;98027.16;5048510;28;20017;-86
2021/12/02 00:05:57;;;;;;;7.32;1.50;;;;;;;2.46;100.00;98022.75;5051079;28;20016;-85
2021/12/02 00:08:22;;;;;;;5.80;0.93;;;;;;;2.44;100.00;98032.47;5048142;28;20092;-86
2021/12/02 00:10:47;;;;;;;7.40;1.20;;;;;;;2.36;100.00;98027.47;5065478;28;20060;-86
2021/12/02 00:13:13;;;;;;;8.90;1.40;;;;;;;2.29;100.00;98036.47;5049108;28;20021;-86
2021/12/02 00:15:51;;;;;;;9.02;1.30;;;;;;;2.39;100.00;98042.31;5046570;28;20048;-87
2021/12/02 00:23:29;;;;;;;13.77;1.33;;;;;;;2.37;100.00;98042.34;5065454;28;20500;-87
2021/12/02 00:25:56;;;;;;;10.88;1.23;;;;;;;2.31;100.00;98051.31;5045693;28;20033;-86
2021/12/02 00:28:24;;;;;;;6.63;1.02;;;;;;;2.46;100.00;98038.56;5048031;28;20128;-87
2021/12/02 00:30:49;;;;;;;6.05;1.25;;;;;;;2.36;100.00;98052.94;5048956;28;20031;-85
2021/12/02 00:33:16;;;;;;;6.28;1.42;;;;;;;2.36;100.00;98052.94;5044875;28;20092;-87
2021/12/02 00:35:43;;;;;;;4.68;1.25;;;;;;;2.36;100.00;98050.31;5049245;28;20024;-86
2021/12/02 00:38:10;;;;;;;6.72;1.20;;;;;;;2.31;100.00;98047.81;5065626;28;20029;-87
2021/12/02 00:40:36;;;;;;;6.07;1.30;;;;;;;2.38;100.00;98045.84;5049126;28;20041;-87
2021/12/02 00:43:01;;;;;;;7.43;1.40;;;;;;;2.17;100.00;98058.78;5048556;28;20087;-86
2021/12/02 00:45:27;;;;;;;8.52;1.33;;;;;;;2.20;100.00;98061.31;5048080;28;20016;-86
2021/12/02 00:47:53;;;;;;;9.73;1.83;;;;;;;2.24;100.00;98076.13;5048323;28;20139;-86
2021/12/02 00:50:18;;;;;;;6.60;1.70;;;;;;;2.23;100.00;98069.13;5062770;28;20021;-87
2021/12/02 00:52:45;;;;;;;6.28;1.35;;;;;;;2.43;100.00;98075.53;5047944;28;20025;-87
2021/12/02 00:55:12;;;;;;;8.45;1.65;;;;;;;2.34;100.00;98080.19;5050587;28;20021;-86
2021/12/02 00:57:39;;;;;;;7.38;1.35;;;;;;;2.34;100.00;98088.09;5047021;28;20017;-88
2021/12/02 01:00:05;;;;;;;7.32;1.35;;;;;;;2.27;100.00;98088.34;5047546;28;20092;-87
2021/12/02 01:02:33;;;;;;;7.63;1.58;;;;;;;2.36;100.00;98089.81;5044408;28;20039;-88
2021/12/02 01:04:59;;;;;;;5.18;1.33;;;;;;;2.47;100.00;98087.72;5044002;28;20016;-87
2021/12/02 01:07:25;;;;;;;6.85;1.50;;;;;;;2.43;100.00;98086.06;5048293;28;20021;-86
2021/12/02 01:09:51;;;;;;;7.03;1.50;;;;;;;2.49;100.00;98085.88;5048049;28;20055;-87
2021/12/02 01:12:17;;;;;;;4.68;1.33;;;;;;;2.46;100.00;98088.59;5048002;28;20032;-86
2021/12/02 01:14:46;;;;;;;7.65;1.45;;;;;;;2.36;100.00;98090.69;5049106;28;20529;-86
2021/12/02 01:17:11;;;;;;;7.90;1.20;;;;;;;2.34;100.00;98093.38;5047943;28;20025;-87
2021/12/02 01:19:37;;;;;;;4.82;1.48;;;;;;;2.22;100.00;98094.59;5049039;28;20021;-87
2021/12/02 01:22:03;;;;;;;8.02;1.98;;;;;;;2.19;100.00;98091.22;5048446;28;20100;-87
2021/12/02 01:24:30;;;;;;;6.78;1.35;;;;;;;2.20;100.00;98109.59;5048461;28;20029;-87
2021/12/02 01:26:58;;;;;;;8.30;1.35;;;;;;;2.19;100.00;98105.22;5048237;28;20025;-86
2021/12/02 01:29:24;;;;;;;8.52;1.60;;;;;;;2.06;100.00;98103.91;5048561;28;20025;-86
2021/12/02 01:31:59;;;;;;;10.85;1.58;;;;;;;2.12;100.00;98099.28;5046684;28;20021;-87
2021/12/02 01:34:27;;;;;;;7.25;1.40;;;;;;;2.07;100.00;98114.38;5046879;28;20063;-86
2021/12/02 01:36:54;;;;;;;9.07;1.95;;;;;;;2.14;100.00;98117.66;5068077;28;20041;-87
2021/12/02 01:39:20;;;;;;;11.20;1.25;;;;;;;2.05;100.00;98116.19;5048096;28;20071;-88
2021/12/02 01:41:47;;;;;;;4.25;1.30;;;;;;;2.11;100.00;98121.25;5050593;28;20017;-87
2021/12/02 01:44:15;;;;;;;9.38;1.60;;;;;;;2.02;100.00;98118.91;5050640;28;20490;-86
2021/12/02 01:46:41;;;;;;;7.95;1.77;;;;;;;1.95;100.00;98127.91;5052829;28;20032;-87
2021/12/02 01:49:10;;;;;;;6.80;1.35;;;;;;;2.04;100.00;98126.75;5049213;28;20021;-86
2021/12/02 01:51:48;;;;;;;7.68;1.30;;;;;;;2.00;100.00;98131.25;5051147;28;20505;-87
2021/12/02 01:54:17;;;;;;;5.50;1.20;;;;;;;2.09;100.00;98127.47;5052761;28;20048;-86
2021/12/02 01:56:46;;;;;;;8.57;1.20;;;;;;;2.11;100.00;98129.16;5052979;28;20021;-86
2021/12/02 01:59:16;;;;;;;4.05;1.15;;;;;;;2.04;100.00;98132.88;5052734;28;20021;-87
2021/12/02 02:01:45;;;;;;;7.63;1.40;;;;;;;2.00;100.00;98140.03;5053014;28;20055;-86
2021/12/02 02:04:11;;;;;;;4.60;1.30;;;;;;;2.00;100.00;98141.78;5051674;28;20063;-86
2021/12/02 02:06:40;;;;;;;6.45;1.95;;;;;;;1.88;100.00;98146.50;5051387;28;20477;-87
2021/12/02 02:09:08;;;;;;;9.77;1.30;;;;;;;1.93;100.00;98140.25;5051254;28;20037;-87
2021/12/02 02:11:33;;;;;;;6.57;1.67;;;;;;;1.97;100.00;98147.16;5052149;28;20381;-87
2021/12/02 02:13:59;;;;;;;6.50;1.63;;;;;;;1.84;100.00;98147.50;5052485;28;20025;-86
2021/12/02 02:16:25;;;;;;;7.20;1.40;;;;;;;1.92;100.00;98143.78;5048050;28;20040;-88
2021/12/02 02:18:51;;;;;;;4.75;1.10;;;;;;;1.84;100.00;98147.50;5050290;28;20100;-86
2021/12/02 02:21:18;;;;;;;5.63;1.45;;;;;;;1.91;100.00;98150.81;5069046;28;20021;-87
2021/12/02 02:23:51;;;;;;;7.47;2.22;;;;;;;1.83;100.00;98150.19;5050789;28;20033;-87
2021/12/02 02:26:28;;;;;;;8.30;1.50;;;;;;;1.89;100.00;98142.97;5051579;28;20017;-87
2021/12/02 02:28:55;;;;;;;10.35;1.58;;;;;;;1.84;100.00;98147.50;5050239;28;20025;-86
2021/12/02 02:31:21;;;;;;;10.20;1.50;;;;;;;1.94;100.00;98147.22;5050436;28;20083;-87
2021/12/02 02:33:50;;;;;;;6.15;1.30;;;;;;;1.97;100.00;98141.88;5049859;28;20048;-87
2021/12/02 02:36:18;;;;;;;9.50;1.60;;;;;;;2.04;100.00;98153.06;5050772;28;20025;-86
2021/12/02 02:38:54;;;;;;;9.30;1.55;;;;;;;2.03;100.00;98157.50;5050838;28;20035;-87
2021/12/02 02:41:20;;;;;;;5.85;1.30;;;;;;;2.01;100.00;98151.44;5050108;28;20481;-87
2021/12/02 02:43:50;;;;;;;4.68;1.05;;;;;;;2.00;100.00;98147.94;5049244;28;20500;-87
2021/12/02 02:46:24;;;;;;;8.23;1.55;;;;;;;1.97;100.00;98148.00;5049129;28;20047;-87
2021/12/02 02:48:50;;;;;;;7.25;1.55;;;;;;;1.94;100.00;98152.50;5049738;28;20481;-86
2021/12/02 02:51:16;;;;;;;6.47;1.20;;;;;;;1.92;100.00;98143.78;5049044;28;20027;-89
2021/12/02 02:53:41;;;;;;;7.28;1.30;;;;;;;1.89;100.00;98148.22;5066435;28;20088;-87
2021/12/02 02:56:18;;;;;;;9.73;1.40;;;;;;;1.82;100.00;98149.31;5051434;28;20444;-87
2021/12/02 02:59:08;;;;;;;9.35;1.77;;;;;;;1.93;100.00;98146.38;5051575;28;20032;-87
2021/12/02 03:12:16;;;;;;;13.65;1.70;;;;;;;1.82;100.00;98158.97;5068942;28;20033;-86
2021/12/02 03:17:10;;;;;;;5.43;1.45;;;;;;;1.93;100.00;98162.19;5069969;28;20055;-86
2021/12/02 03:19:40;;;;;;;7.43;1.48;;;;;;;1.89;100.00;98164.03;5052273;28;20020;-87
2021/12/02 03:22:05;;;;;;;8.73;1.60;;;;;;;1.74;100.00;98156.56;5051459;28;20051;-88
2021/12/02 03:24:31;;;;;;;7.70;1.52;;;;;;;1.74;100.00;98159.19;5041275;28;20124;-87
2021/12/02 03:26:56;;;;;;;10.05;1.65;;;;;;;1.88;100.00;98158.81;5044514;28;20039;-88
2021/12/02 03:29:21;;;;;;;6.53;1.42;;;;;;;1.76;100.00;98154.75;5048724;28;20033;-92
2021/12/02 03:31:47;;;;;;;11.00;1.88;;;;;;;1.81;100.00;98158.13;5059382;28;20025;-88
2021/12/02 03:34:12;;;;;;;8.88;1.67;;;;;;;1.61;100.00;98154.28;5041878;28;20050;-88
2021/12/02 03:36:38;;;;;;;8.40;1.70;;;;;;;1.76;100.00;98157.38;5049907;28;20430;-87
2021/12/02 03:39:06;;;;;;;9.60;2.03;;;;;;;1.72;100.00;98154.00;5051212;28;20021;-87
2021/12/02 03:41:32;;;;;;;8.88;1.73;;;;;;;1.75;100.00;98166.19;5050776;28;20040;-86
2021/12/02 03:43:58;;;;;;;10.07;1.85;;;;;;;1.65;100.00;98155.91;5051034;28;20032;-87
2021/12/02 03:46:25;;;;;;;9.27;1.70;;;;;;;1.76;100.00;98162.63;5052144;28;20111;-88
2021/12/02 03:48:52;;;;;;;10.40;1.67;;;;;;;1.64;100.00;98154.22;5049988;28;20020;-86
2021/12/02 03:51:18;;;;;;;4.82;1.45;;;;;;;1.55;100.00;98142.16;5052001;28;20054;-87
2021/12/02 03:53:44;;;;;;;10.75;1.77;;;;;;;1.52;100.00;98144.03;5049476;28;20048;-88
2021/12/02 03:56:10;;;;;;;6.10;1.98;;;;;;;1.53;100.00;98143.09;5046703;28;20075;-88
2021/12/02 03:58:38;;;;;;;8.20;1.70;;;;;;;1.55;100.00;98147.41;5068364;28;20074;-86
2021/12/02 04:01:05;;;;;;;8.30;1.83;;;;;;;1.47;100.00;98138.03;5042917;28;20025;-86
2021/12/02 04:03:30;;;;;;;9.38;1.90;;;;;;;1.49;100.00;98138.84;5049988;28;20025;-86
2021/12/02 04:05:55;;;;;;;12.43;1.80;;;;;;;1.35;100.00;98140.06;5046392;28;20082;-88
2021/12/02 04:08:28;;;;;;;8.52;1.85;;;;;;;1.53;100.00;98143.09;5046334;28;20025;-90
2021/12/02 04:10:59;;;;;;;8.02;2.00;;;;;;;1.43;100.00;98143.38;5050923;28;20063;-90
2021/12/02 04:13:29;;;;;;;21.20;2.30;;;;;;;1.36;100.00;98151.47;5048705;28;20035;-87
2021/12/02 04:15:59;;;;;;;14.63;2.50;;;;;;;1.35;100.00;98161.13;5048698;28;20049;-86
2021/12/02 04:18:24;;;;;;;11.00;2.05;;;;;;;1.30;100.00;98173.53;5055495;28;20013;-86
2021/12/02 04:20:50;;;;;;;8.00;2.45;;;;;;;1.29;100.00;98162.13;5052853;28;20021;-85
2021/12/02 04:23:15;;;;;;;8.27;1.67;;;;;;;1.21;100.00;98172.84;5055939;28;20033;-86
2021/12/02 04:25:40;;;;;;;11.45;1.98;;;;;;;1.33;100.00;98179.56;5052197;28;20021;-87
2021/12/02 04:28:06;;;;;;;11.15;2.25;;;;;;;1.31;100.00;98164.75;5050931;28;20045;-87
2021/12/02 04:30:31;;;;;;;9.70;2.05;;;;;;;1.25;100.00;98164.88;5050763;28;20021;-87
2021/12/02 04:32:57;;;;;;;10.30;2.05;;;;;;;1.20;100.00;98168.50;5051071;28;20093;-87
2021/12/02 04:35:22;;;;;;;11.02;2.42;;;;;;;1.24;100.00;98168.44;5066806;28;20076;-87
2021/12/02 04:37:51;;;;;;;7.25;2.22;;;;;;;1.07;100.00;98175.84;5048428;28;20115;-87
2021/12/02 04:40:20;;;;;;;9.65;2.30;;;;;;;1.19;100.00;98179.91;5045143;28;20017;-88
2021/12/02 04:42:45;;;;;;;10.93;2.22;;;;;;;1.07;100.00;98172.34;5048068;28;20024;-88
2021/12/02 04:45:12;;;;;;;9.75;2.20;;;;;;;1.13;100.00;98182.72;5049628;28;20055;-87
2021/12/02 04:47:38;;;;;;;8.15;2.63;;;;;;;1.27;100.00;98178.84;5051435;28;20021;-87
2021/12/02 04:50:05;;;;;;;7.45;1.90;;;;;;;1.16;100.00;98177.38;5051802;28;20085;-86
2021/12/02 04:52:31;;;;;;;6.18;1.70;;;;;;;1.09;100.00;98178.44;5050810;28;20025;-87
2021/12/02 04:54:56;;;;;;;8.98;1.95;;;;;;;1.07;100.00;98183.72;5068056;28;20098;-86
2021/12/02 04:57:21;;;;;;;13.68;2.15;;;;;;;1.08;100.00;98189.84;5051172;28;20025;-86
2021/12/02 04:59:46;;;;;;;13.35;1.95;;;;;;;0.97;100.00;98188.34;5050880;28;20078;-87
2021/12/02 05:02:12;;;;;;;12.15;2.40;;;;;;;1.00;100.00;98188.28;5051266;28;20028;-86
2021/12/02 05:04:37;;;;;;;6.88;1.98;;;;;;;1.16;100.00;98192.28;5051107;28;20017;-87
2021/12/02 05:07:03;;;;;;;7.53;1.88;;;;;;;1.10;100.00;98188.06;5049797;28;20055;-86
2021/12/02 05:09:28;;;;;;;10.02;2.80;;;;;;;1.02;100.00;98192.63;5048928;28;20021;-87
2021/12/02 05:11:53;;;;;;;14.35;2.95;;;;;;;1.17;100.00;98197.50;5053115;28;20025;-87
2021/12/02 05:14:18;;;;;;;7.45;1.80;;;;;;;1.18;100.00;98203.63;5055561;28;20036;-87
2021/12/02 05:16:44;;;;;;;10.13;1.80;;;;;;;1.08;100.00;98203.84;5069392;28;20083;-87
2021/12/02 05:19:10;;;;;;;5.70;1.98;;;;;;;1.13;100.00;98209.00;5043097;28;20420;-89
2021/12/02 05:21:35;;;;;;;12.20;2.38;;;;;;;1.18;100.00;98206.25;5041449;28;20025;-89
2021/12/02 05:24:00;;;;;;;10.20;1.85;;;;;;;1.10;100.00;98198.56;5042948;28;20029;-88
2021/12/02 05:26:26;;;;;;;7.18;2.20;;;;;;;1.15;100.00;98207.19;5044253;28;20033;-86
2021/12/02 05:28:53;;;;;;;9.32;1.85;;;;;;;1.24;100.00;98200.81;5046949;28;20024;-86
2021/12/02 05:31:19;;;;;;;5.47;1.63;;;;;;;1.30;100.00;98205.94;5042654;28;20025;-87
2021/12/02 05:33:45;;;;;;;8.93;2.20;;;;;;;1.26;100.00;98204.31;5042783;28;20029;-87
2021/12/02 05:36:10;;;;;;;10.52;2.20;;;;;;;1.28;100.00;98201.63;5041838;28;20032;-86
2021/12/02 05:38:36;;;;;;;10.10;2.85;;;;;;;1.31;100.00;98191.03;5048630;28;20020;-92
2021/12/02 05:41:03;;;;;;;9.48;2.70;;;;;;;1.26;100.00;98198.19;5059557;28;20043;-92
2021/12/02 05:43:29;;;;;;;5.30;2.50;;;;;;;1.31;100.00;98189.28;5040799;28;20021;-90
2021/12/02 05:45:55;;;;;;;10.45;2.75;;;;;;;1.33;100.00;98199.75;5045864;28;20048;-91
2021/12/02 05:48:20;;;;;;;10.45;2.25;;;;;;;1.34;100.00;98202.31;5058041;28;20021;-88
2021/12/02 05:50:58;;;;;;;8.55;2.72;;;;;;;1.28;100.00;98209.53;5041358;28;20127;-92
2021/12/02 05:53:23;;;;;;;11.60;3.53;;;;;;;1.22;100.00;98219.28;5040771;28;20485;-93
2021/12/02 05:55:48;;;;;;;9.57;2.78;;;;;;;1.30;100.00;98210.34;5040993;28;20040;-90
2021/12/02 05:58:14;;;;;;;10.88;2.83;;;;;;;1.21;100.00;98220.19;5040403;28;20074;-92
2021/12/02 06:00:46;;;;;;;8.27;2.80;;;;;;;1.34;100.00;98222.53;5042107;28;20078;-91
2021/12/02 06:03:11;;;;;;;11.35;3.45;;;;;;;1.33;100.00;98226.03;5042710;28;20029;-91
2021/12/02 06:05:36;;;;;;;8.00;3.20;;;;;;;1.28;100.00;98233.19;5052059;28;20035;-91
2021/12/02 06:08:03;;;;;;;9.57;3.22;;;;;;;1.27;100.00;98237.56;5044223;28;20043;-91
2021/12/02 06:10:32;;;;;;;8.45;2.90;;;;;;;1.20;100.00;98231.63;5053124;28;20025;-90
2021/12/02 06:12:57;;;;;;;9.48;3.10;;;;;;;1.30;100.00;98228.75;5056892;28;20115;-91
2021/12/02 06:15:24;;;;;;;6.63;2.67;;;;;;;1.26;100.00;98229.72;5053445;28;20016;-93
2021/12/02 06:17:49;;;;;;;7.18;2.50;;;;;;;1.20;100.00;98234.25;5062373;28;20032;-93
2021/12/02 06:20:19;;;;;;;5.70;2.80;;;;;;;1.25;100.00;98234.13;5062492;28;20025;-92
2021/12/02 06:22:46;;;;;;;7.93;3.40;;;;;;;1.30;100.00;98236.63;5060138;28;20017;-91
2021/12/02 06:27:46;;;;;;;10.23;3.45;;;;;;;1.22;100.00;98237.69;5080290;28;20017;-92
2021/12/02 06:30:12;;;;;;;;;;;;;;;1.32;100.00;98250.59;5062490;28;20043;-94
2021/12/02 06:32:56;;;;;;;8.73;4.13;;;;;;;1.30;100.00;98244.53;5060313;28;19923;-89
2021/12/02 06:35:22;;;;;;;;;;;;;;;1.20;100.00;98252.66;5061009;28;20009;-91
2021/12/02 06:37:48;;;;;;;9.48;4.68;;;;;;;1.20;100.00;98268.41;5080525;28;19908;-93
2021/12/02 06:40:14;;;;;;;13.85;6.13;;;;;;;1.23;100.00;98262.22;5062787;28;20009;-90
2021/12/02 06:42:41;;;;;;;12.93;6.25;;;;;;;1.18;100.00;98267.59;5062627;28;20013;-91
2021/12/02 06:45:08;;;;;;;12.63;6.03;;;;;;;1.06;100.00;98274.00;5063174;28;20009;-91
2021/12/02 06:47:38;;;;;;;11.90;5.28;;;;;;;1.10;100.00;98278.31;5069534;28;20034;-89
2021/12/02 06:50:05;;;;;;;8.77;4.90;;;;;;;1.19;100.00;98274.56;5043380;28;20389;-91
2021/12/02 06:52:31;;;;;;;7.25;4.35;;;;;;;1.09;100.00;98286.19;5042286;28;20017;-91
2021/12/02 06:55:00;;;;;;;7.65;3.75;;;;;;;1.14;100.00;98284.34;5042016;28;20116;-92
2021/12/02 06:57:26;;;;;;;9.00;3.22;;;;;;;1.12;100.00;98280.88;5043967;28;20059;-89
2021/12/02 06:59:51;;;;;;;7.47;3.03;;;;;;;1.22;100.00;98281.53;5038720;28;20017;-90
2021/12/02 07:02:18;;;;;;;5.38;2.53;;;;;;;1.17;100.00;98289.53;5038662;28;20436;-90
2021/12/02 07:04:44;;;;;;;6.53;2.75;;;;;;;1.05;100.00;98293.31;5037864;28;20029;-90
2021/12/02 07:07:09;;;;;;;4.70;2.28;;;;;;;1.11;100.00;98297.53;5037772;28;20492;-92
2021/12/02 07:09:34;;;;;;;7.28;2.70;;;;;;;1.05;100.00;98301.19;5037448;28;20557;-91
2021/12/02 07:12:00;;;;;;;6.57;2.63;;;;;;;1.05;100.00;98300.34;5037388;28;20040;-90
2021/12/02 07:14:26;;;;;;;6.18;2.90;;;;;;;1.05;100.00;98306.47;5037299;28;20545;-90
2021/12/02 07:16:52;;;;;;;8.13;3.30;;;;;;;1.09;100.00;98307.22;5037370;28;20048;-90
2021/12/02 07:19:18;;;;;;;9.68;3.38;;;;;;;1.07;100.00;98303.78;5037423;28;20481;-90
2021/12/02 07:21:43;;;;;;;7.32;3.30;;;;;;;1.11;100.00;98300.16;5037381;28;20028;-90
2021/12/02 07:24:13;;;;;;;7.03;3.15;;;;;;;0.99;100.00;98306.59;5037468;28;20377;-90
2021/12/02 07:26:41;;;;;;;9.40;3.72;;;;;;;1.05;100.00;98316.09;5037266;28;20059;-90
2021/12/02 07:29:13;;;;;;;6.57;3.50;;;;;;;1.04;100.00;98319.63;5037248;28;20044;-90
2021/12/02 07:31:40;;;;;;;6.45;3.08;;;;;;;0.99;100.00;98320.59;5037245;28;20025;-90
2021/12/02 07:34:06;;;;;;;6.20;3.35;;;;;;;0.94;100.00;98321.59;5036754;28;20401;-90
2021/12/02 07:36:33;;;;;;;7.57;3.63;;;;;;;0.95;100.00;98332.09;5037082;28;20104;-90
2021/12/02 07:39:05;;;;;;;8.60;3.90;;;;;;;0.98;100.00;98332.00;5036996;28;20031;-90
2021/12/02 07:41:31;;;;;;;9.05;4.28;;;;;;;0.94;100.00;98330.34;5037084;28;20435;-90
2021/12/02 07:43:57;;;;;;;9.88;4.32;;;;;;;0.96;100.00;98331.19;5055142;28;20568;-91
2021/12/02 07:46:23;;;;;;;15.85;9.80;;;;;;;0.97;100.00;98339.94;5037025;28;20026;-90
2021/12/02 07:48:48;;;;;;;9.55;4.05;;;;;;;0.93;100.00;98344.38;5037319;28;20043;-90
2021/12/02 07:51:16;;;;;;;8.02;4.38;;;;;;;0.91;100.00;98346.19;5036969;28;20021;-90
2021/12/02 07:53:44;;;;;;;10.68;4.38;;;;;;;0.95;100.00;98341.72;5036866;28;20069;-91
2021/12/02 07:56:13;;;;;;;7.95;4.13;;;;;;;0.92;100.00;98347.06;5036747;28;20060;-90
2021/12/02 07:58:46;;;;;;;8.77;3.95;;;;;;;0.99;100.00;98346.88;5036757;28;20071;-90
2021/12/02 08:01:12;;;;;;;6.32;4.00;;;;;;;1.03;100.00;98347.66;5036655;28;20053;-90
2021/12/02 08:03:43;;;;;;;7.15;3.88;;;;;;;0.97;100.00;98356.56;5036498;28;20049;-90
2021/12/02 08:06:11;;;;;;;6.45;3.40;;;;;;;0.93;100.00;98368.03;5036666;28;20021;-90
2021/12/02 08:08:37;;;;;;;7.63;3.80;;;;;;;0.96;100.00;98367.97;5054677;28;20074;-90
2021/12/02 08:11:05;;;;;;;10.30;3.63;;;;;;;0.95;100.00;98366.25;5035968;28;20462;-90
2021/12/02 08:13:31;;;;;;;9.63;3.92;;;;;;;0.98;100.00;98368.78;5036212;28;20021;-90
2021/12/02 08:15:56;;;;;;;7.65;3.53;;;;;;;1.08;100.00;98368.63;5036277;28;20025;-90
2021/12/02 08:18:21;;;;;;;8.10;4.00;;;;;;;1.09;100.00;98365.06;5036427;28;20496;-90
2021/12/02 08:20:47;;;;;;;7.50;3.60;;;;;;;1.13;100.00;98372.00;5036621;28;20024;-90
2021/12/02 08:23:12;;;;;;;10.35;3.50;;;;;;;1.04;100.00;98383.56;5036192;28;20478;-90
2021/12/02 08:25:37;;;;;;;6.07;3.30;;;;;;;1.10;100.00;98385.22;5036015;28;20078;-89
2021/12/02 08:28:03;;;;;;;10.80;3.83;;;;;;;1.09;100.00;98388.72;5035936;28;20032;-90
2021/12/02 08:30:33;;;;;;;7.60;3.40;;;;;;;1.18;100.00;98391.19;5053716;28;20021;-90
2021/12/02 08:32:58;;;;;;;7.93;3.55;;;;;;;1.10;100.00;98398.34;5035903;28;20504;-89
2021/12/02 08:35:25;;;;;;;9.75;4.70;;;;;;;1.03;100.00;98404.66;5035810;28;20033;-90
2021/12/02 08:37:54;;;;;;;7.55;4.00;;;;;;;1.09;100.00;98401.88;5036020;28;20025;-89
2021/12/02 08:40:29;;;;;;;7.80;4.50;;;;;;;0.94;100.00;98396.06;5035792;28;20389;-90
2021/12/02 08:42:55;;;;;;;9.77;4.50;;;;;;;1.01;100.00;98404.66;5035787;28;20103;-90
2021/12/02 08:45:20;;;;;;;9.63;4.82;;;;;;;1.04;100.00;98407.22;5034941;28;20059;-90
2021/12/02 08:47:45;;;;;;;8.65;5.00;;;;;;;1.03;100.00;98407.28;5035726;28;20111;-90
2021/12/02 08:50:16;;;;;;;7.93;5.05;;;;;;;1.00;100.00;98403.81;5035631;28;20490;-89
2021/12/02 08:52:42;;;;;;;7.65;4.30;;;;;;;1.04;100.00;98409.00;5035710;28;20504;-90
2021/12/02 08:55:08;;;;;;;10.60;5.05;;;;;;;1.11;100.00;98406.19;5035838;28;20025;-89
2021/12/02 08:57:35;;;;;;;11.43;4.72;;;;;;;1.11;100.00;98410.59;5053565;28;20025;-90
2021/12/02 09:00:02;;;;;;;7.55;4.82;;;;;;;1.11;100.00;98414.09;5035559;28;20025;-90
2021/12/02 09:02:27;;;;;;;9.60;4.30;;;;;;;1.21;100.00;98416.53;5035515;28;20017;-89
2021/12/02 09:04:53;;;;;;;6.45;3.83;;;;;;;1.19;100.00;98428.81;5035605;28;20074;-89
2021/12/02 09:07:18;;;;;;;8.02;3.80;;;;;;;1.38;100.00;98428.44;5037738;28;20024;-88
2021/12/02 09:09:44;;;;;;;7.35;3.70;;;;;;;1.34;100.00;98435.53;5037162;28;20387;-90
2021/12/02 09:12:09;;;;;;;8.98;3.60;;;;;;;1.32;100.00;98426.78;5035452;28;20025;-90
2021/12/02 09:14:36;;;;;;;5.57;3.53;;;;;;;1.30;100.00;98436.50;5035535;28;20064;-90
2021/12/02 09:17:02;;;;;;;5.63;2.88;;;;;;;1.41;100.00;98438.88;5035661;28;20048;-91
2021/12/02 09:19:27;;;;;;;4.63;2.65;;;;;;;1.45;100.00;98436.16;5035629;28;20024;-89
2021/12/02 09:21:52;;;;;;;7.10;2.75;;;;;;;1.44;100.00;98450.19;5053307;28;20456;-89
2021/12/02 09:24:18;;;;;;;4.63;2.65;;;;;;;1.36;100.00;98451.28;5035590;28;20076;-90
2021/12/02 09:26:46;;;;;;;5.18;2.50;;;;;;;1.36;100.00;98451.28;5035546;28;20036;-90
2021/12/02 09:29:12;;;;;;;4.40;2.10;;;;;;;1.39;100.00;98454.69;5035697;28;20486;-90
2021/12/02 09:31:37;;;;;;;4.47;2.38;;;;;;;1.33;100.00;98460.09;5035408;28;20025;-90
2021/12/02 09:34:02;;;;;;;4.07;2.45;;;;;;;1.30;100.00;98463.66;5035834;28;20111;-91
2021/12/02 09:36:28;;;;;;;8.15;3.08;;;;;;;1.42;100.00;98462.50;5036250;28;20029;-90
2021/12/02 09:38:54;;;;;;;5.15;2.42;;;;;;;1.56;100.00;98471.88;5035507;28;20392;-90
2021/12/02 09:41:19;;;;;;;4.13;2.65;;;;;;;1.66;100.00;98473.41;5035387;28;20389;-90
2021/12/02 09:43:44;;;;;;;3.17;2.30;;;;;;;1.63;100.00;98476.09;5035445;28;20021;-90
2021/12/02 09:46:10;;;;;;;5.20;3.10;;;;;;;1.65;100.00;98474.28;5035399;28;20025;-90
2021/12/02 09:48:37;;;;;;;5.28;2.92;;;;;;;1.56;100.00;98469.25;5036167;28;20417;-90
2021/12/02 09:51:16;;;;;;;4.80;3.13;;;;;;;1.50;100.00;98472.00;5035286;28;20029;-90
2021/12/02 09:53:56;;;;;;;6.13;2.63;;;;;;;1.62;100.00;98474.38;5035548;28;20025;-90
2021/12/02 09:56:27;;;;;;;5.00;2.45;;;;;;;1.63;100.00;98476.09;5036967;28;20108;-90
2021/12/02 09:58:56;;;;;;;4.93;2.58;;;;;;;1.71;100.00;98472.41;5039186;28;20024;-90
2021/12/02 10:01:35;;;;;;;4.45;2.60;;;;;;;1.77;100.00;98473.16;5038994;28;20546;-90
2021/12/02 10:04:02;;;;;;;4.60;2.78;;;;;;;1.81;100.00;98473.06;5038716;28;20045;-90
2021/12/02 10:06:32;;;;;;;5.22;2.10;;;;;;;1.74;100.00;98467.09;5039010;28;20025;-91
2021/12/02 10:09:37;;;;;;;7.05;2.90;;;;;;;1.81;100.00;98473.94;5039291;28;20025;-91
2021/12/02 10:12:13;;;;;;;5.63;2.75;;;;;;;1.96;100.00;98471.88;5038998;28;20029;-90
2021/12/02 10:14:39;;;;;;;4.35;1.95;;;;;;;1.97;100.00;98476.19;5038734;28;20481;-89
2021/12/02 10:17:20;;;;;;;4.07;2.05;;;;;;;1.87;100.00;98475.56;5038628;28;20148;-90
2021/12/02 10:20:14;;;;;;;3.67;2.40;;;;;;;1.93;100.00;98466.66;5039640;28;20405;-90
2021/12/02 10:22:41;;;;;;;;;;;;;;;1.88;100.00;98472.88;5038728;28;20033;-90
2021/12/02 10:25:08;;;;;;;6.65;3.72;;;;;;;1.73;100.00;98475.88;5038563;28;20369;-90
2021/12/02 10:27:33;;;;;;;6.35;4.53;;;;;;;1.66;100.00;98481.28;5038448;28;20409;-90
2021/12/02 10:29:58;;;;;;;8.70;5.03;;;;;;;1.66;100.00;98486.56;5038249;28;20020;-90
2021/12/02 10:32:30;;;;;;;7.40;5.00;;;;;;;1.72;100.00;98490.81;5038190;28;20031;-90
2021/12/02 10:35:05;;;;;;;9.48;4.90;;;;;;;1.66;100.00;98494.44;5038485;28;20024;-90
2021/12/02 10:37:36;;;;;;;7.88;4.30;;;;;;;1.64;100.00;98493.63;5038384;28;20025;-90
2021/12/02 10:40:07;;;;;;;5.35;3.30;;;;;;;1.57;100.00;98492.03;5038290;28;20024;-90
2021/12/02 10:42:35;;;;;;;5.25;3.53;;;;;;;1.50;100.00;98495.66;5038376;28;20436;-90
2021/12/02 10:45:02;;;;;;;6.50;4.03;;;;;;;1.47;100.00;98506.28;5038423;28;20044;-89
2021/12/02 10:47:29;;;;;;;7.68;4.28;;;;;;;1.51;100.00;98500.03;5039073;28;20461;-89
2021/12/02 10:49:59;;;;;;;7.47;3.53;;;;;;;1.41;100.00;98507.28;5038247;28;20036;-90
2021/12/02 10:52:28;;;;;;;6.72;3.40;;;;;;;1.38;100.00;98502.94;5038356;28;20025;-90
2021/12/02 10:55:04;;;;;;;10.65;3.83;;;;;;;1.30;100.00;98508.38;5037992;28;20017;-90
2021/12/02 10:57:31;;;;;;;8.48;3.33;;;;;;;1.22;100.00;98510.28;5038244;28;20505;-90
2021/12/02 11:00:07;;;;;;;7.47;2.67;;;;;;;1.18;100.00;98511.25;5038156;28;20035;-89
2021/12/02 11:02:35;;;;;;;6.65;2.42;;;;;;;1.21;100.00;98509.41;5037701;28;20025;-89
2021/12/02 11:05:09;;;;;;;4.15;2.63;;;;;;;1.20;100.00;98510.31;5037811;28;20032;-89
2021/12/02 11:07:40;;;;;;;3.92;2.22;;;;;;;1.20;100.00;98517.34;5036887;28;20082;-91
2021/12/02 11:10:09;;;;;;;5.85;2.80;;;;;;;1.19;100.00;98516.47;5037545;28;20390;-90
2021/12/02 11:12:43;;;;;;;4.93;2.10;;;;;;;1.22;100.00;98518.16;5037526;28;20032;-89
2021/12/02 11:15:16;;;;;;;4.63;2.42;;;;;;;1.17;100.00;98520.91;5038383;28;20104;-90
2021/12/02 11:17:46;;;;;;;4.10;2.37;;;;;;;1.15;100.00;98522.69;5037376;28;20447;-91
2021/12/02 11:20:33;;;;;;;3.97;2.42;;;;;;;1.21;100.00;98535.69;5037549;28;20074;-91
2021/12/02 11:23:03;;;;;;;3.90;2.67;;;;;;;1.30;100.00;98525.91;5038049;28;20027;-92
2021/12/02 11:25:29;;;;;;;5.35;2.90;;;;;;;1.31;100.00;98528.53;5037624;28;20507;-90
2021/12/02 11:27:55;;;;;;;5.57;2.95;;;;;;;1.32;100.00;98535.50;5037377;28;20032;-89
2021/12/02 11:30:26;;;;;;;5.60;3.08;;;;;;;1.33;100.00;98531.97;5037557;28;20021;-89
2021/12/02 11:32:58;;;;;;;4.50;2.95;;;;;;;1.45;100.00;98536.09;5037204;28;20021;-90
2021/12/02 11:35:31;;;;;;;6.18;2.67;;;;;;;1.43;100.00;98543.16;5037107;28;20021;-90
2021/12/02 11:37:59;;;;;;;4.07;2.58;;;;;;;1.42;100.00;98549.31;5037226;28;20025;-90
2021/12/02 11:40:28;;;;;;;4.60;2.92;;;;;;;1.35;100.00;98534.56;5039964;28;20091;-90
2021/12/02 11:42:55;;;;;;;5.40;3.17;;;;;;;1.24;100.00;98531.31;5046212;28;20017;-89
2021/12/02 11:45:22;;;;;;;4.80;3.35;;;;;;;1.31;100.00;98544.28;5042452;28;20032;-90
2021/12/02 11:47:49;;;;;;;7.13;3.22;;;;;;;1.22;100.00;98549.72;5038380;28;20025;-91
2021/12/02 11:50:15;;;;;;;8.90;4.10;;;;;;;1.20;100.00;98555.03;5037574;28;20079;-90
2021/12/02 11:52:42;;;;;;;6.38;4.15;;;;;;;1.11;100.00;98558.69;5037475;28;20115;-89
2021/12/02 11:55:18;;;;;;;7.22;4.18;;;;;;;1.09;100.00;98554.34;5037063;28;20021;-89